createdAt,value
2023-06-10T00:00:32.698Z,936.95
2023-06-10T00:01:32.667Z,937.01
2023-06-10T00:02:32.849Z,937.00
2023-06-10T00:03:32.806Z,936.95
2023-06-10T00:04:32.773Z,937.01
2023-06-10T00:05:32.722Z,937.01
2023-06-10T00:06:32.743Z,936.99
2023-06-10T00:07:32.759Z,936.99
2023-06-10T00:08:32.864Z,937.02
2023-06-10T00:09:32.792Z,937.03
2023-06-10T00:10:32.815Z,937.01
2023-06-10T00:11:32.828Z,937.07
2023-06-10T00:12:32.825Z,937.12
2023-06-10T00:13:32.944Z,937.11
2023-06-10T00:14:32.852Z,937.12
2023-06-10T00:15:32.864Z,937.11
2023-06-10T00:16:32.907Z,937.12
2023-06-10T00:17:32.930Z,937.09
2023-06-10T00:18:32.907Z,937.11
2023-06-10T00:19:33.013Z,937.12
2023-06-10T00:20:32.934Z,937.10
2023-06-10T00:21:32.939Z,937.12
2023-06-10T00:22:32.960Z,937.10
2023-06-10T00:23:33.000Z,937.14
2023-06-10T00:24:33.096Z,937.11
2023-06-10T00:25:32.992Z,937.11
2023-06-10T00:26:33.006Z,937.13
2023-06-10T00:27:33.047Z,937.12
2023-06-10T00:28:33.040Z,937.10
2023-06-10T00:29:33.047Z,937.10
2023-06-10T00:30:33.176Z,937.12
2023-06-10T00:31:33.139Z,937.16
2023-06-10T00:32:33.124Z,937.16
2023-06-10T00:33:33.109Z,937.20
2023-06-10T00:34:33.112Z,937.18
2023-06-10T00:35:33.138Z,937.20
2023-06-10T00:36:33.239Z,937.20
2023-06-10T00:37:33.162Z,937.20
2023-06-10T00:38:33.172Z,937.22
2023-06-10T00:39:33.183Z,937.20
2023-06-10T00:40:33.194Z,937.19
2023-06-10T00:41:33.313Z,937.28
2023-06-10T00:42:33.233Z,937.26
2023-06-10T00:43:33.265Z,937.24
2023-06-10T00:44:33.253Z,937.25
2023-06-10T00:45:33.299Z,937.28
2023-06-10T00:46:33.379Z,937.28
2023-06-10T00:47:33.329Z,937.29
2023-06-10T00:48:33.305Z,937.32
2023-06-10T00:49:33.322Z,937.30
2023-06-10T00:50:33.326Z,937.30
2023-06-10T00:51:33.340Z,937.37
2023-06-10T00:52:33.453Z,937.35
2023-06-10T00:53:33.366Z,937.37
2023-06-10T00:54:33.388Z,937.40
2023-06-10T00:55:33.400Z,937.43
2023-06-10T00:56:33.415Z,937.41
2023-06-10T00:57:33.551Z,937.41
2023-06-10T00:58:33.437Z,937.37
2023-06-10T00:59:33.470Z,937.39
2023-06-10T01:00:33.467Z,937.39
2023-06-10T01:01:33.610Z,937.39
2023-06-10T01:02:33.688Z,937.35
2023-06-10T01:03:33.645Z,937.37
2023-06-10T01:04:33.528Z,937.36
2023-06-10T01:05:33.537Z,937.33
2023-06-10T01:06:33.554Z,937.38
2023-06-10T01:07:33.664Z,937.36
2023-06-10T01:08:33.569Z,937.38
2023-06-10T01:09:33.588Z,937.40
2023-06-10T01:10:33.599Z,937.39
2023-06-10T01:11:33.616Z,937.39
2023-06-10T01:12:33.626Z,937.38
2023-06-10T01:13:33.739Z,937.40
2023-06-10T01:14:33.658Z,937.43
2023-06-10T01:15:33.696Z,937.41
2023-06-10T01:16:33.731Z,937.43
2023-06-10T01:17:33.711Z,937.44
2023-06-10T01:18:33.817Z,937.42
2023-06-10T01:19:33.724Z,937.42
2023-06-10T01:20:33.964Z,937.40
2023-06-10T01:21:35.230Z,937.40
2023-06-10T01:22:33.840Z,937.40
2023-06-10T01:23:33.958Z,937.38
2023-06-10T01:24:33.817Z,937.40
2023-06-10T01:25:33.923Z,937.38
2023-06-10T01:26:33.821Z,937.45
2023-06-10T01:27:33.829Z,937.43
2023-06-10T01:28:33.836Z,937.44
2023-06-10T01:29:33.948Z,937.45
2023-06-10T01:30:33.868Z,937.43
2023-06-10T01:31:34.097Z,937.43
2023-06-10T01:32:33.921Z,937.39
2023-06-10T01:33:33.908Z,937.37
2023-06-10T01:34:33.946Z,937.38
2023-06-10T01:35:34.031Z,937.34
2023-06-10T01:36:33.955Z,937.38
2023-06-10T01:37:33.962Z,937.35
2023-06-10T01:38:33.968Z,937.33
2023-06-10T01:39:33.989Z,937.40
2023-06-10T01:40:34.098Z,937.40
2023-06-10T01:41:34.009Z,937.38
2023-06-10T01:42:34.023Z,937.36
2023-06-10T01:43:34.043Z,937.38
2023-06-10T01:44:34.058Z,937.37
2023-06-10T01:45:34.074Z,937.37
2023-06-10T01:46:34.208Z,937.38
2023-06-10T01:47:34.134Z,937.40
2023-06-10T01:48:34.121Z,937.43
2023-06-10T01:49:34.127Z,937.42
2023-06-10T01:50:34.154Z,937.47
2023-06-10T01:51:34.252Z,937.48
2023-06-10T01:52:34.162Z,937.51
2023-06-10T01:53:34.176Z,937.51
2023-06-10T01:54:34.390Z,937.48
2023-06-10T01:55:34.212Z,937.52
2023-06-10T01:56:34.211Z,937.54
2023-06-10T01:57:34.324Z,937.54
2023-06-10T01:58:34.237Z,937.56
2023-06-10T01:59:34.259Z,937.55
2023-06-10T02:00:34.319Z,937.55
2023-06-10T02:01:34.285Z,937.55
2023-06-10T02:02:34.401Z,937.55
2023-06-10T02:03:34.628Z,937.55
2023-06-10T02:04:34.319Z,937.56
2023-06-10T02:05:34.338Z,937.54
2023-06-10T02:06:34.354Z,937.58
2023-06-10T02:07:34.364Z,937.63
2023-06-10T02:08:34.377Z,937.62
2023-06-10T02:09:34.483Z,937.60
2023-06-10T02:10:34.407Z,937.63
2023-06-10T02:11:34.420Z,937.63
2023-06-10T02:12:34.421Z,937.60
2023-06-10T02:13:34.435Z,937.57
2023-06-10T02:14:34.563Z,937.59
2023-06-10T02:15:34.469Z,937.61
2023-06-10T02:16:34.546Z,937.57
2023-06-10T02:17:34.520Z,937.56
2023-06-10T02:18:34.508Z,937.58
2023-06-10T02:19:34.574Z,937.56
2023-06-10T02:20:34.636Z,937.58
2023-06-10T02:21:34.541Z,937.60
2023-06-10T02:22:34.553Z,937.53
2023-06-10T02:23:34.609Z,937.51
2023-06-10T02:24:34.584Z,937.55
2023-06-10T02:25:34.602Z,937.52
2023-06-10T02:26:34.721Z,937.50
2023-06-10T02:27:34.641Z,937.52
2023-06-10T02:28:34.640Z,937.54
2023-06-10T02:29:34.662Z,937.53
2023-06-10T02:30:34.660Z,937.55
2023-06-10T02:31:34.691Z,937.58
2023-06-10T02:32:34.848Z,937.58
2023-06-10T02:33:34.707Z,937.58
2023-06-10T02:34:34.716Z,937.60
2023-06-10T02:35:34.768Z,937.61
2023-06-10T02:36:34.746Z,937.66
2023-06-10T02:37:35.176Z,937.66
2023-06-10T02:38:34.871Z,937.64
2023-06-10T02:39:34.776Z,937.63
2023-06-10T02:40:34.798Z,937.64
2023-06-10T02:41:34.812Z,937.59
2023-06-10T02:42:34.816Z,937.59
2023-06-10T02:43:34.835Z,937.58
2023-06-10T02:44:34.966Z,937.58
2023-06-10T02:45:34.858Z,937.58
2023-06-10T02:46:35.001Z,937.61
2023-06-10T02:47:34.933Z,937.58
2023-06-10T02:48:34.908Z,937.59
2023-06-10T02:49:35.019Z,937.61
2023-06-10T02:50:34.937Z,937.62
2023-06-10T02:51:34.960Z,937.59
2023-06-10T02:52:34.960Z,937.62
2023-06-10T02:53:34.972Z,937.60
2023-06-10T02:54:35.090Z,937.60
2023-06-10T02:55:34.993Z,937.60
2023-06-10T02:56:35.008Z,937.59
2023-06-10T02:57:35.026Z,937.60
2023-06-10T02:58:35.031Z,937.58
2023-06-10T02:59:35.060Z,937.59
2023-06-10T03:00:35.168Z,937.57
2023-06-10T03:01:35.102Z,937.55
2023-06-10T03:02:35.100Z,937.57
2023-06-10T03:03:35.250Z,937.53
2023-06-10T03:04:35.128Z,937.53
2023-06-10T03:05:35.238Z,937.57
2023-06-10T03:06:35.147Z,937.55
2023-06-10T03:07:35.177Z,937.54
2023-06-10T03:08:35.171Z,937.52
2023-06-10T03:09:35.179Z,937.51
2023-06-10T03:10:35.195Z,937.50
2023-06-10T03:11:35.311Z,937.54
2023-06-10T03:12:35.218Z,937.54
2023-06-10T03:13:35.238Z,937.52
2023-06-10T03:14:35.252Z,937.50
2023-06-10T03:15:35.256Z,937.52
2023-06-10T03:16:35.359Z,937.49
2023-06-10T03:17:35.425Z,937.52
2023-06-10T03:18:35.323Z,937.49
2023-06-10T03:19:35.320Z,937.46
2023-06-10T03:20:35.331Z,937.45
2023-06-10T03:21:35.355Z,937.43
2023-06-10T03:22:35.363Z,937.42
2023-06-10T03:23:35.537Z,937.40
2023-06-10T03:24:35.406Z,937.39
2023-06-10T03:25:35.394Z,937.34
2023-06-10T03:26:35.410Z,937.38
2023-06-10T03:27:35.421Z,937.36
2023-06-10T03:28:35.427Z,937.35
2023-06-10T03:29:35.539Z,937.36
2023-06-10T03:30:35.458Z,937.39
2023-06-10T03:31:35.505Z,937.33
2023-06-10T03:32:35.537Z,937.31
2023-06-10T03:33:35.504Z,937.34
2023-06-10T03:34:35.505Z,937.29
2023-06-10T03:35:35.618Z,937.33
2023-06-10T03:36:35.543Z,937.33
2023-06-10T03:37:35.555Z,937.29
2023-06-10T03:38:35.560Z,937.30
2023-06-10T03:39:35.612Z,937.26
2023-06-10T03:40:35.590Z,937.22
2023-06-10T03:41:35.714Z,937.19
2023-06-10T03:42:35.618Z,937.21
2023-06-10T03:43:35.625Z,937.24
2023-06-10T03:44:35.644Z,937.19
2023-06-10T03:45:35.744Z,937.22
2023-06-10T03:46:35.774Z,937.21
2023-06-10T03:47:35.710Z,937.15
2023-06-10T03:48:35.693Z,937.16
2023-06-10T03:49:35.710Z,937.19
2023-06-10T03:50:35.721Z,937.17
2023-06-10T03:51:35.728Z,937.18
2023-06-10T03:52:35.849Z,937.15
2023-06-10T03:53:35.761Z,937.16
2023-06-10T03:54:35.804Z,937.11
2023-06-10T03:55:35.816Z,937.10
2023-06-10T03:56:35.794Z,937.09
2023-06-10T03:57:35.924Z,937.06
2023-06-10T03:58:35.826Z,937.05
2023-06-10T03:59:35.835Z,937.06
2023-06-10T04:00:35.844Z,937.03
2023-06-10T04:01:35.857Z,937.03
2023-06-10T04:02:36.037Z,937.03
2023-06-10T04:03:35.883Z,937.01
2023-06-10T04:04:35.905Z,937.07
2023-06-10T04:05:35.970Z,937.06
2023-06-10T04:06:35.921Z,937.06
2023-06-10T04:07:35.957Z,937.07
2023-06-10T04:08:36.066Z,937.09
2023-06-10T04:09:35.961Z,937.10
2023-06-10T04:10:35.989Z,937.12
2023-06-10T04:11:36.020Z,937.11
2023-06-10T04:12:36.001Z,937.13
2023-06-10T04:13:36.121Z,937.12
2023-06-10T04:14:36.035Z,937.13
2023-06-10T04:15:36.051Z,937.09
2023-06-10T04:16:36.150Z,937.08
2023-06-10T04:17:36.137Z,937.04
2023-06-10T04:18:36.188Z,937.05
2023-06-10T04:19:36.097Z,937.02
2023-06-10T04:20:36.102Z,937.01
2023-06-10T04:21:36.115Z,937.05
2023-06-10T04:22:36.134Z,937.05
2023-06-10T04:23:36.268Z,936.96
2023-06-10T04:24:36.155Z,937.01
2023-06-10T04:25:36.175Z,936.98
2023-06-10T04:26:36.184Z,936.96
2023-06-10T04:27:36.225Z,936.97
2023-06-10T04:28:36.210Z,936.97
2023-06-10T04:29:36.329Z,936.94
2023-06-10T04:30:36.232Z,936.92
2023-06-10T04:31:36.300Z,936.95
2023-06-10T04:32:36.301Z,936.95
2023-06-10T04:33:36.270Z,936.88
2023-06-10T04:34:36.284Z,936.87
2023-06-10T04:35:36.410Z,936.84
2023-06-10T04:36:36.323Z,936.85
2023-06-10T04:37:36.336Z,936.85
2023-06-10T04:38:36.346Z,936.88
2023-06-10T04:39:39.242Z,936.85
2023-06-10T04:40:36.367Z,936.83
2023-06-10T04:41:36.487Z,936.86
2023-06-10T04:42:36.388Z,936.85
2023-06-10T04:43:36.430Z,936.83
2023-06-10T04:44:36.419Z,936.86
2023-06-10T04:45:36.434Z,936.85
2023-06-10T04:46:36.459Z,936.83
2023-06-10T04:47:36.587Z,936.81
2023-06-10T04:48:36.464Z,936.84
2023-06-10T04:49:36.481Z,936.82
2023-06-10T04:50:36.495Z,936.83
2023-06-10T04:51:36.509Z,936.78
2023-06-10T04:52:36.530Z,936.86
2023-06-10T04:53:36.634Z,936.82
2023-06-10T04:54:36.543Z,936.83
2023-06-10T04:55:36.556Z,936.81
2023-06-10T04:56:36.566Z,936.82
2023-06-10T04:57:36.587Z,936.85
2023-06-10T04:58:36.601Z,936.82
2023-06-10T04:59:36.736Z,936.82
2023-06-10T05:00:36.627Z,936.82
2023-06-10T05:01:36.673Z,936.83
2023-06-10T05:02:36.666Z,936.86
2023-06-10T05:03:36.733Z,936.86
2023-06-10T05:04:36.672Z,936.85
2023-06-10T05:05:36.786Z,936.85
2023-06-10T05:06:36.703Z,936.82
2023-06-10T05:07:36.720Z,936.82
2023-06-10T05:08:36.731Z,936.83
2023-06-10T05:09:36.734Z,936.79
2023-06-10T05:10:36.753Z,936.78
2023-06-10T05:11:36.882Z,936.80
2023-06-10T05:12:36.773Z,936.75
2023-06-10T05:13:36.785Z,936.75
2023-06-10T05:14:36.808Z,936.75
2023-06-10T05:15:36.844Z,936.77
2023-06-10T05:16:36.924Z,936.78
2023-06-10T05:17:36.985Z,936.81
2023-06-10T05:18:36.899Z,936.81
2023-06-10T05:19:36.880Z,936.79
2023-06-10T05:20:36.883Z,936.82
2023-06-10T05:21:36.926Z,936.83
2023-06-10T05:22:37.006Z,936.80
2023-06-10T05:23:36.942Z,936.84
2023-06-10T05:24:36.933Z,936.78
2023-06-10T05:25:36.939Z,936.78
2023-06-10T05:26:36.950Z,936.81
2023-06-10T05:27:37.064Z,936.82
2023-06-10T05:28:36.985Z,936.77
2023-06-10T05:29:36.989Z,936.76
2023-06-10T05:30:37.015Z,936.79
2023-06-10T05:31:37.077Z,936.79
2023-06-10T05:32:37.111Z,936.74
2023-06-10T05:33:37.157Z,936.71
2023-06-10T05:34:37.066Z,936.72
2023-06-10T05:35:37.084Z,936.77
2023-06-10T05:36:38.092Z,936.72
2023-06-10T05:37:37.102Z,936.74
2023-06-10T05:38:37.114Z,936.68
2023-06-10T05:39:37.227Z,936.67
2023-06-10T05:40:37.133Z,936.66
2023-06-10T05:41:37.157Z,936.67
2023-06-10T05:42:37.167Z,936.69
2023-06-10T05:43:37.175Z,936.64
2023-06-10T05:44:37.188Z,936.64
2023-06-10T05:45:37.308Z,936.62
2023-06-10T05:46:37.236Z,936.62
2023-06-10T05:47:37.295Z,936.63
2023-06-10T05:48:37.236Z,936.58
2023-06-10T05:49:37.259Z,936.61
2023-06-10T05:50:37.362Z,936.60
2023-06-10T05:51:38.516Z,936.59
2023-06-10T05:52:37.300Z,936.61
2023-06-10T05:53:37.306Z,936.57
2023-06-10T05:54:37.319Z,936.55
2023-06-10T05:55:37.343Z,936.56
2023-06-10T05:56:37.449Z,936.56
2023-06-10T05:57:37.358Z,936.57
2023-06-10T05:58:37.362Z,936.49
2023-06-10T05:59:37.385Z,936.55
2023-06-10T06:00:38.541Z,936.57
2023-06-10T06:01:37.404Z,936.53
2023-06-10T06:02:37.627Z,936.53
2023-06-10T06:03:37.803Z,936.55
2023-06-10T06:04:37.501Z,936.55
2023-06-10T06:05:37.453Z,936.57
2023-06-10T06:06:37.472Z,936.55
2023-06-10T06:07:37.484Z,936.54
2023-06-10T06:08:37.591Z,936.55
2023-06-10T06:09:37.502Z,936.54
2023-06-10T06:10:37.515Z,936.57
2023-06-10T06:11:37.546Z,936.57
2023-06-10T06:12:37.569Z,936.55
2023-06-10T06:13:37.570Z,936.59
2023-06-10T06:14:37.667Z,936.59
2023-06-10T06:15:37.594Z,936.55
2023-06-10T06:16:37.641Z,936.55
2023-06-10T06:17:37.642Z,936.58
2023-06-10T06:18:37.626Z,936.59
2023-06-10T06:19:37.799Z,936.53
2023-06-10T06:20:37.649Z,936.53
2023-06-10T06:21:37.663Z,936.50
2023-06-10T06:22:37.684Z,936.54
2023-06-10T06:23:37.772Z,936.54
2023-06-10T06:24:37.768Z,936.53
2023-06-10T06:25:37.808Z,936.54
2023-06-10T06:26:37.730Z,936.54
2023-06-10T06:27:37.735Z,936.56
2023-06-10T06:28:37.752Z,936.56
2023-06-10T06:29:37.776Z,936.53
2023-06-10T06:30:37.831Z,936.54
2023-06-10T06:31:37.974Z,936.54
2023-06-10T06:32:37.836Z,936.54
2023-06-10T06:33:37.818Z,936.54
2023-06-10T06:34:37.823Z,936.53
2023-06-10T06:35:37.857Z,936.52
2023-06-10T06:36:37.958Z,936.51
2023-06-10T06:37:37.862Z,936.50
2023-06-10T06:38:37.882Z,936.50
2023-06-10T06:39:37.906Z,936.51
2023-06-10T06:40:37.909Z,936.50
2023-06-10T06:41:37.923Z,936.48
2023-06-10T06:42:38.027Z,936.49
2023-06-10T06:43:37.949Z,936.51
2023-06-10T06:44:37.962Z,936.48
2023-06-10T06:45:37.964Z,936.46
2023-06-10T06:46:38.000Z,936.45
2023-06-10T06:47:38.053Z,936.49
2023-06-10T06:48:38.243Z,936.51
2023-06-10T06:49:38.018Z,936.53
2023-06-10T06:50:38.040Z,936.49
2023-06-10T06:51:38.059Z,936.52
2023-06-10T06:52:38.063Z,936.49
2023-06-10T06:53:38.066Z,936.50
2023-06-10T06:54:38.185Z,936.54
2023-06-10T06:55:38.095Z,936.50
2023-06-10T06:56:38.104Z,936.48
2023-06-10T06:57:38.127Z,936.48
2023-06-10T06:58:38.130Z,936.45
2023-06-10T06:59:38.151Z,936.46
2023-06-10T07:00:38.254Z,936.45
2023-06-10T07:01:38.263Z,936.47
2023-06-10T07:02:38.217Z,936.47
2023-06-10T07:03:38.193Z,936.45
2023-06-10T07:04:38.273Z,936.49
2023-06-10T07:05:38.232Z,936.48
2023-06-10T07:06:38.811Z,936.49
2023-06-10T07:07:38.269Z,936.49
2023-06-10T07:08:38.260Z,936.45
2023-06-10T07:09:38.277Z,936.49
2023-06-10T07:10:38.286Z,936.50
2023-06-10T07:11:38.423Z,936.47
2023-06-10T07:12:38.302Z,936.53
2023-06-10T07:13:38.322Z,936.52
2023-06-10T07:14:38.335Z,936.54
2023-06-10T07:15:38.347Z,936.55
2023-06-10T07:16:38.427Z,936.50
2023-06-10T07:17:38.503Z,936.50
2023-06-10T07:18:38.379Z,936.52
2023-06-10T07:19:38.405Z,936.46
2023-06-10T07:20:38.417Z,936.46
2023-06-10T07:21:38.423Z,936.43
2023-06-10T07:22:38.529Z,936.46
2023-06-10T07:23:38.477Z,936.45
2023-06-10T07:24:38.453Z,936.45
2023-06-10T07:25:38.482Z,936.41
2023-06-10T07:26:38.507Z,936.39
2023-06-10T07:27:38.562Z,936.41
2023-06-10T07:28:38.610Z,936.39
2023-06-10T07:29:38.538Z,936.41
2023-06-10T07:30:38.677Z,936.37
2023-06-10T07:31:38.587Z,936.37
2023-06-10T07:32:38.622Z,936.38
2023-06-10T07:33:38.569Z,936.35
2023-06-10T07:34:38.693Z,936.35
2023-06-10T07:35:38.595Z,936.39
2023-06-10T07:36:38.611Z,936.40
2023-06-10T07:37:38.620Z,936.38
2023-06-10T07:38:38.629Z,936.41
2023-06-10T07:39:38.672Z,936.44
2023-06-10T07:40:38.760Z,936.48
2023-06-10T07:41:38.668Z,936.47
2023-06-10T07:42:38.723Z,936.48
2023-06-10T07:43:38.694Z,936.44
2023-06-10T07:44:38.713Z,936.43
2023-06-10T07:45:38.727Z,936.44
2023-06-10T07:46:38.960Z,936.44
2023-06-10T07:47:38.793Z,936.45
2023-06-10T07:48:38.775Z,936.46
2023-06-10T07:49:38.778Z,936.48
2023-06-10T07:50:38.792Z,936.47
2023-06-10T07:51:38.898Z,936.46
2023-06-10T07:52:38.819Z,936.48
2023-06-10T07:53:38.827Z,936.48
2023-06-10T07:54:38.839Z,936.47
2023-06-10T07:55:38.872Z,936.46
2023-06-10T07:56:38.858Z,936.43
2023-06-10T07:57:38.981Z,936.44
2023-06-10T07:58:38.888Z,936.46
2023-06-10T07:59:38.907Z,936.42
2023-06-10T08:00:38.913Z,936.50
2023-06-10T08:01:38.921Z,936.49
2023-06-10T08:02:39.026Z,936.51
2023-06-10T08:03:39.109Z,936.48
2023-06-10T08:04:39.018Z,936.42
2023-06-10T08:05:38.982Z,936.42
2023-06-10T08:06:38.996Z,936.43
2023-06-10T08:07:39.004Z,936.45
2023-06-10T08:08:39.010Z,936.45
2023-06-10T08:09:39.128Z,936.45
2023-06-10T08:10:39.052Z,936.46
2023-06-10T08:11:39.068Z,936.47
2023-06-10T08:12:39.058Z,936.46
2023-06-10T08:13:39.083Z,936.43
2023-06-10T08:14:39.186Z,936.42
2023-06-10T08:15:39.102Z,936.43
2023-06-10T08:16:39.134Z,936.43
2023-06-10T08:17:39.200Z,936.42
2023-06-10T08:18:39.138Z,936.39
2023-06-10T08:19:39.153Z,936.42
2023-06-10T08:20:39.263Z,936.41
2023-06-10T08:21:39.169Z,936.43
2023-06-10T08:22:39.195Z,936.47
2023-06-10T08:23:39.228Z,936.45
2023-06-10T08:24:39.211Z,936.52
2023-06-10T08:25:39.320Z,936.47
2023-06-10T08:26:39.233Z,936.50
2023-06-10T08:27:39.265Z,936.50
2023-06-10T08:28:39.263Z,936.46
2023-06-10T08:29:39.283Z,936.46
2023-06-10T08:30:39.281Z,936.47
2023-06-10T08:31:39.437Z,936.50
2023-06-10T08:32:39.349Z,936.49
2023-06-10T08:33:39.321Z,936.49
2023-06-10T08:34:39.345Z,936.50
2023-06-10T08:35:39.349Z,936.52
2023-06-10T08:36:39.358Z,936.56
2023-06-10T08:37:39.483Z,936.56
2023-06-10T08:38:39.387Z,936.59
2023-06-10T08:39:39.402Z,936.57
2023-06-10T08:40:39.413Z,936.61
2023-06-10T08:41:39.426Z,936.59
2023-06-10T08:42:39.534Z,936.57
2023-06-10T08:43:39.470Z,936.62
2023-06-10T08:44:39.466Z,936.56
2023-06-10T08:45:39.468Z,936.59
2023-06-10T08:46:39.489Z,936.65
2023-06-10T08:47:39.532Z,936.62
2023-06-10T08:48:39.623Z,936.61
2023-06-10T08:49:39.524Z,936.65
2023-06-10T08:50:39.541Z,936.63
2023-06-10T08:51:39.549Z,936.62
2023-06-10T08:52:39.559Z,936.63
2023-06-10T08:53:39.569Z,936.63
2023-06-10T08:54:39.782Z,936.63
2023-06-10T08:55:39.599Z,936.64
2023-06-10T08:56:40.358Z,936.65
2023-06-10T08:57:39.632Z,936.65
2023-06-10T08:58:39.632Z,936.68
2023-06-10T08:59:39.659Z,936.66
2023-06-10T09:00:39.753Z,936.75
2023-06-10T09:01:39.682Z,936.73
2023-06-10T09:02:39.732Z,936.72
2023-06-10T09:03:39.745Z,936.72
2023-06-10T09:04:39.716Z,936.76
2023-06-10T09:05:39.716Z,936.73
2023-06-10T09:06:39.838Z,936.69
2023-06-10T09:07:39.744Z,936.72
2023-06-10T09:08:39.780Z,936.70
2023-06-10T09:09:39.771Z,936.76
2023-06-10T09:10:39.783Z,936.75
2023-06-10T09:11:39.797Z,936.73
2023-06-10T09:12:39.914Z,936.71
2023-06-10T09:13:39.819Z,936.73
2023-06-10T09:14:39.827Z,936.75
2023-06-10T09:15:39.861Z,936.77
2023-06-10T09:16:39.888Z,936.77
2023-06-10T09:17:39.906Z,936.78
2023-06-10T09:18:39.981Z,936.81
2023-06-10T09:19:39.896Z,936.80
2023-06-10T09:20:39.907Z,936.80
2023-06-10T09:21:39.921Z,936.81
2023-06-10T09:22:39.932Z,936.84
2023-06-10T09:23:39.964Z,936.83
2023-06-10T09:24:40.052Z,936.82
2023-06-10T09:25:39.970Z,936.84
2023-06-10T09:26:39.982Z,936.85
2023-06-10T09:27:39.996Z,936.84
2023-06-10T09:28:40.000Z,936.88
2023-06-10T09:29:40.142Z,936.86
2023-06-10T09:30:40.029Z,936.87
2023-06-10T09:31:40.115Z,936.89
2023-06-10T09:32:40.174Z,936.88
2023-06-10T09:33:40.068Z,936.90
2023-06-10T09:34:40.181Z,936.94
2023-06-10T09:35:40.142Z,936.92
2023-06-10T09:36:40.104Z,936.90
2023-06-10T09:37:40.110Z,936.91
2023-06-10T09:38:40.138Z,936.93
2023-06-10T09:39:40.135Z,936.92
2023-06-10T09:40:40.248Z,936.90
2023-06-10T09:41:40.176Z,936.91
2023-06-10T09:42:40.224Z,936.92
2023-06-10T09:43:40.195Z,936.92
2023-06-10T09:44:40.199Z,936.94
2023-06-10T09:45:40.338Z,936.94
2023-06-10T09:46:40.229Z,936.94
2023-06-10T09:47:40.387Z,936.93
2023-06-10T09:48:40.263Z,936.93
2023-06-10T09:49:40.290Z,936.96
2023-06-10T09:50:40.386Z,936.93
2023-06-10T09:51:40.298Z,936.94
2023-06-10T09:52:40.315Z,936.93
2023-06-10T09:53:40.320Z,936.96
2023-06-10T09:54:40.322Z,936.96
2023-06-10T09:55:40.341Z,936.96
2023-06-10T09:56:40.455Z,937.01
2023-06-10T09:57:40.372Z,937.01
2023-06-10T09:58:40.376Z,936.99
2023-06-10T09:59:40.386Z,937.03
2023-06-10T10:00:40.398Z,937.03
2023-06-10T10:01:40.415Z,937.03
2023-06-10T10:02:40.586Z,937.03
2023-06-10T10:03:40.464Z,937.06
2023-06-10T10:04:40.481Z,937.04
2023-06-10T10:05:40.587Z,937.07
2023-06-10T10:06:40.481Z,937.08
2023-06-10T10:07:42.843Z,937.08
2023-06-10T10:08:40.660Z,937.08
2023-06-10T10:09:40.521Z,937.07
2023-06-10T10:10:40.554Z,937.11
2023-06-10T10:11:40.589Z,937.11
2023-06-10T10:12:40.552Z,937.15
2023-06-10T10:13:40.566Z,937.14
2023-06-10T10:14:40.679Z,937.16
2023-06-10T10:15:40.586Z,937.13
2023-06-10T10:16:40.678Z,937.17
2023-06-10T10:17:40.658Z,937.19
2023-06-10T10:18:40.690Z,937.19
2023-06-10T10:19:40.662Z,937.22
2023-06-10T10:20:40.746Z,937.24
2023-06-10T10:21:40.670Z,937.24
2023-06-10T10:22:40.680Z,937.26
2023-06-10T10:23:40.778Z,937.27
2023-06-10T10:24:40.767Z,937.31
2023-06-10T10:25:40.721Z,937.29
2023-06-10T10:26:40.819Z,937.31
2023-06-10T10:27:40.749Z,937.33
2023-06-10T10:28:40.810Z,937.31
2023-06-10T10:29:40.780Z,937.30
2023-06-10T10:30:40.801Z,937.35
2023-06-10T10:31:40.824Z,937.38
2023-06-10T10:32:40.961Z,937.36
2023-06-10T10:33:40.961Z,937.36
2023-06-10T10:34:40.814Z,937.41
2023-06-10T10:35:40.849Z,937.40
2023-06-10T10:36:40.850Z,937.40
2023-06-10T10:37:40.958Z,937.44
2023-06-10T10:38:40.871Z,937.45
2023-06-10T10:39:40.901Z,937.50
2023-06-10T10:40:40.898Z,937.50
2023-06-10T10:41:40.927Z,937.50
2023-06-10T10:42:40.927Z,937.55
2023-06-10T10:43:41.073Z,937.53
2023-06-10T10:44:40.958Z,937.53
2023-06-10T10:45:40.952Z,937.56
2023-06-10T10:46:41.034Z,937.51
2023-06-10T10:47:41.025Z,937.53
2023-06-10T10:48:40.993Z,937.57
2023-06-10T10:49:41.119Z,937.58
2023-06-10T10:50:41.017Z,937.59
2023-06-10T10:51:41.671Z,937.59
2023-06-10T10:52:41.040Z,937.62
2023-06-10T10:53:41.065Z,937.64
2023-06-10T10:54:41.073Z,937.66
2023-06-10T10:55:41.180Z,937.70
2023-06-10T10:56:41.234Z,937.68
2023-06-10T10:57:41.104Z,937.66
2023-06-10T10:58:41.120Z,937.66
2023-06-10T10:59:41.128Z,937.65
2023-06-10T11:00:41.206Z,937.66
2023-06-10T11:01:41.342Z,937.68
2023-06-10T11:02:41.252Z,937.66
2023-06-10T11:03:41.212Z,937.66
2023-06-10T11:04:41.310Z,937.73
2023-06-10T11:05:41.234Z,937.69
2023-06-10T11:06:41.314Z,937.67
2023-06-10T11:07:41.238Z,937.70
2023-06-10T11:08:41.237Z,937.73
2023-06-10T11:09:41.250Z,937.72
2023-06-10T11:10:41.359Z,937.73
2023-06-10T11:11:41.274Z,937.72
2023-06-10T11:12:41.381Z,937.76
2023-06-10T11:13:41.291Z,937.75
2023-06-10T11:14:41.306Z,937.74
2023-06-10T11:15:41.334Z,937.73
2023-06-10T11:16:41.347Z,937.76
2023-06-10T11:17:41.385Z,937.79
2023-06-10T11:18:41.451Z,937.78
2023-06-10T11:19:41.369Z,937.81
2023-06-10T11:20:41.380Z,937.81
2023-06-10T11:21:41.429Z,937.81
2023-06-10T11:22:41.408Z,937.86
2023-06-10T11:23:41.652Z,937.85
2023-06-10T11:24:41.477Z,937.85
2023-06-10T11:25:41.443Z,937.87
2023-06-10T11:26:41.455Z,937.87
2023-06-10T11:27:41.511Z,937.88
2023-06-10T11:28:41.509Z,937.88
2023-06-10T11:29:41.653Z,937.89
2023-06-10T11:30:41.528Z,937.89
2023-06-10T11:31:41.656Z,937.86
2023-06-10T11:32:41.642Z,937.91
2023-06-10T11:33:41.585Z,937.89
2023-06-10T11:34:41.554Z,937.89
2023-06-10T11:35:41.666Z,937.88
2023-06-10T11:36:41.637Z,937.89
2023-06-10T11:37:41.589Z,937.92
2023-06-10T11:38:41.605Z,937.94
2023-06-10T11:39:41.648Z,937.93
2023-06-10T11:40:41.629Z,937.92
2023-06-10T11:41:41.732Z,937.93
2023-06-10T11:42:41.647Z,937.93
2023-06-10T11:43:41.663Z,937.95
2023-06-10T11:44:41.673Z,937.99
2023-06-10T11:45:41.685Z,937.96
2023-06-10T11:46:41.785Z,937.98
2023-06-10T11:47:41.831Z,938.01
2023-06-10T11:48:41.727Z,938.01
2023-06-10T11:49:43.311Z,938.00
2023-06-10T11:50:41.742Z,938.00
2023-06-10T11:51:41.770Z,938.00
2023-06-10T11:52:41.772Z,938.00
2023-06-10T11:53:41.883Z,938.00
2023-06-10T11:54:41.798Z,937.99
2023-06-10T11:55:41.836Z,937.98
2023-06-10T11:56:41.828Z,938.01
2023-06-10T11:57:41.839Z,938.03
2023-06-10T11:58:41.840Z,938.04
2023-06-10T11:59:41.959Z,938.03
2023-06-10T12:00:41.872Z,938.07
2023-06-10T12:01:44.411Z,938.07
2023-06-10T12:02:41.991Z,938.11
2023-06-10T12:03:41.943Z,938.07
2023-06-10T12:04:41.929Z,938.09
2023-06-10T12:05:42.092Z,938.10
2023-06-10T12:06:41.941Z,938.14
2023-06-10T12:07:41.971Z,938.10
2023-06-10T12:08:41.964Z,938.12
2023-06-10T12:09:41.982Z,938.13
2023-06-10T12:10:42.099Z,938.08
2023-06-10T12:11:42.029Z,938.14
2023-06-10T12:12:42.043Z,938.12
2023-06-10T12:13:42.034Z,938.12
2023-06-10T12:14:42.049Z,938.12
2023-06-10T12:15:42.155Z,938.13
2023-06-10T12:16:42.103Z,938.14
2023-06-10T12:17:42.115Z,938.15
2023-06-10T12:18:42.092Z,938.15
2023-06-10T12:19:42.106Z,938.14
2023-06-10T12:20:42.123Z,938.16
2023-06-10T12:21:42.233Z,938.20
2023-06-10T12:22:42.192Z,938.18
2023-06-10T12:23:42.184Z,938.17
2023-06-10T12:24:42.174Z,938.17
2023-06-10T12:25:42.186Z,938.16
2023-06-10T12:26:42.184Z,938.17
2023-06-10T12:27:42.467Z,938.18
2023-06-10T12:28:42.223Z,938.13